sensor_id;sensor_type;location;lat;lon;timestamp;P1;durP1;ratioP1;P2;durP2;ratioP2
7845;SDS011;3968;51.424;6.788;2024-01-16T00:00:06;7.33;;;5.17;;
7845;SDS011;3968;51.424;6.788;2024-01-16T00:02:34;8.73;;;5.27;;
7845;SDS011;3968;51.424;6.788;2024-01-16T00:04:59;6.20;;;4.90;;
7845;SDS011;3968;51.424;6.788;2024-01-16T00:07:25;7.30;;;4.73;;
7845;SDS011;3968;51.424;6.788;2024-01-16T00:09:50;9.77;;;6.07;;
7845;SDS011;3968;51.424;6.788;2024-01-16T00:12:18;11.50;;;5.00;;
7845;SDS011;3968;51.424;6.788;2024-01-16T00:14:44;8.97;;;4.77;;
7845;SDS011;3968;51.424;6.788;2024-01-16T00:17:10;10.07;;;5.63;;
7845;SDS011;3968;51.424;6.788;2024-01-16T00:19:36;6.17;;;4.43;;
7845;SDS011;3968;51.424;6.788;2024-01-16T00:22:02;4.17;;;3.70;;
7845;SDS011;3968;51.424;6.788;2024-01-16T00:24:29;5.37;;;4.00;;
7845;SDS011;3968;51.424;6.788;2024-01-16T00:26:55;7.70;;;4.43;;
7845;SDS011;3968;51.424;6.788;2024-01-16T00:29:21;6.77;;;4.40;;
7845;SDS011;3968;51.424;6.788;2024-01-16T00:31:47;8.97;;;4.53;;
7845;SDS011;3968;51.424;6.788;2024-01-16T00:34:12;5.67;;;4.03;;
7845;SDS011;3968;51.424;6.788;2024-01-16T00:36:39;6.17;;;4.47;;
7845;SDS011;3968;51.424;6.788;2024-01-16T00:39:04;7.17;;;4.30;;
7845;SDS011;3968;51.424;6.788;2024-01-16T00:41:30;6.07;;;3.63;;
7845;SDS011;3968;51.424;6.788;2024-01-16T00:43:56;7.23;;;4.00;;
7845;SDS011;3968;51.424;6.788;2024-01-16T00:46:21;8.60;;;4.03;;
7845;SDS011;3968;51.424;6.788;2024-01-16T00:48:47;6.67;;;3.63;;
7845;SDS011;3968;51.424;6.788;2024-01-16T00:51:13;5.77;;;3.73;;
7845;SDS011;3968;51.424;6.788;2024-01-16T00:53:42;9.53;;;4.20;;
7845;SDS011;3968;51.424;6.788;2024-01-16T00:56:08;4.10;;;3.23;;
7845;SDS011;3968;51.424;6.788;2024-01-16T00:58:34;6.60;;;3.97;;
7845;SDS011;3968;51.424;6.788;2024-01-16T01:00:59;7.50;;;4.10;;
7845;SDS011;3968;51.424;6.788;2024-01-16T01:03:25;5.97;;;3.80;;
7845;SDS011;3968;51.424;6.788;2024-01-16T01:05:51;6.63;;;3.73;;
7845;SDS011;3968;51.424;6.788;2024-01-16T01:08:17;7.07;;;4.20;;
7845;SDS011;3968;51.424;6.788;2024-01-16T01:10:42;7.60;;;4.00;;
7845;SDS011;3968;51.424;6.788;2024-01-16T01:13:08;4.70;;;3.60;;
7845;SDS011;3968;51.424;6.788;2024-01-16T01:15:33;6.90;;;3.93;;
7845;SDS011;3968;51.424;6.788;2024-01-16T01:17:59;6.43;;;3.93;;
7845;SDS011;3968;51.424;6.788;2024-01-16T01:20:25;4.10;;;3.70;;
7845;SDS011;3968;51.424;6.788;2024-01-16T01:22:50;6.70;;;3.70;;
7845;SDS011;3968;51.424;6.788;2024-01-16T01:25:16;5.97;;;3.83;;
7845;SDS011;3968;51.424;6.788;2024-01-16T01:27:42;9.20;;;4.03;;
7845;SDS011;3968;51.424;6.788;2024-01-16T01:30:08;8.53;;;4.17;;
7845;SDS011;3968;51.424;6.788;2024-01-16T01:32:37;7.73;;;4.30;;
7845;SDS011;3968;51.424;6.788;2024-01-16T01:35:03;7.13;;;4.00;;
7845;SDS011;3968;51.424;6.788;2024-01-16T01:37:30;6.53;;;3.50;;
7845;SDS011;3968;51.424;6.788;2024-01-16T01:39:55;5.17;;;4.10;;
7845;SDS011;3968;51.424;6.788;2024-01-16T01:42:21;5.67;;;4.20;;
7845;SDS011;3968;51.424;6.788;2024-01-16T01:44:47;5.43;;;4.37;;
7845;SDS011;3968;51.424;6.788;2024-01-16T01:47:13;8.13;;;4.83;;
7845;SDS011;3968;51.424;6.788;2024-01-16T01:49:39;6.43;;;4.60;;
7845;SDS011;3968;51.424;6.788;2024-01-16T01:52:06;7.67;;;5.17;;
7845;SDS011;3968;51.424;6.788;2024-01-16T01:54:33;10.93;;;5.13;;
7845;SDS011;3968;51.424;6.788;2024-01-16T01:57:01;7.30;;;5.23;;
7845;SDS011;3968;51.424;6.788;2024-01-16T01:59:27;6.77;;;5.10;;
7845;SDS011;3968;51.424;6.788;2024-01-16T02:01:54;6.93;;;5.43;;
7845;SDS011;3968;51.424;6.788;2024-01-16T02:04:21;6.93;;;5.40;;
7845;SDS011;3968;51.424;6.788;2024-01-16T02:06:47;6.97;;;5.30;;
7845;SDS011;3968;51.424;6.788;2024-01-16T02:09:13;6.73;;;5.80;;
7845;SDS011;3968;51.424;6.788;2024-01-16T02:11:39;7.23;;;5.50;;
7845;SDS011;3968;51.424;6.788;2024-01-16T02:14:06;6.90;;;5.33;;
7845;SDS011;3968;51.424;6.788;2024-01-16T02:16:35;5.77;;;5.10;;
7845;SDS011;3968;51.424;6.788;2024-01-16T02:19:03;7.20;;;5.40;;
7845;SDS011;3968;51.424;6.788;2024-01-16T02:21:30;8.13;;;5.63;;
7845;SDS011;3968;51.424;6.788;2024-01-16T02:24:06;7.87;;;5.90;;
7845;SDS011;3968;51.424;6.788;2024-01-16T02:26:33;6.30;;;5.47;;
7845;SDS011;3968;51.424;6.788;2024-01-16T02:29:02;8.40;;;5.97;;
7845;SDS011;3968;51.424;6.788;2024-01-16T02:31:29;6.43;;;5.83;;
7845;SDS011;3968;51.424;6.788;2024-01-16T02:33:55;8.67;;;6.13;;
7845;SDS011;3968;51.424;6.788;2024-01-16T02:36:21;7.37;;;6.57;;
7845;SDS011;3968;51.424;6.788;2024-01-16T02:38:47;7.73;;;6.53;;
7845;SDS011;3968;51.424;6.788;2024-01-16T02:41:15;10.80;;;6.73;;
7845;SDS011;3968;51.424;6.788;2024-01-16T02:43:42;8.30;;;6.87;;
7845;SDS011;3968;51.424;6.788;2024-01-16T02:46:08;9.07;;;7.07;;
7845;SDS011;3968;51.424;6.788;2024-01-16T02:48:34;9.30;;;7.43;;
7845;SDS011;3968;51.424;6.788;2024-01-16T02:51:01;9.87;;;8.13;;
7845;SDS011;3968;51.424;6.788;2024-01-16T02:53:27;8.47;;;7.50;;
7845;SDS011;3968;51.424;6.788;2024-01-16T02:55:53;11.57;;;7.80;;
7845;SDS011;3968;51.424;6.788;2024-01-16T02:58:19;10.43;;;8.90;;
7845;SDS011;3968;51.424;6.788;2024-01-16T03:00:45;10.60;;;9.50;;
7845;SDS011;3968;51.424;6.788;2024-01-16T03:03:11;10.53;;;9.30;;
7845;SDS011;3968;51.424;6.788;2024-01-16T03:05:37;9.63;;;8.40;;
7845;SDS011;3968;51.424;6.788;2024-01-16T03:08:03;11.67;;;9.10;;
7845;SDS011;3968;51.424;6.788;2024-01-16T03:10:29;10.70;;;8.97;;
7845;SDS011;3968;51.424;6.788;2024-01-16T03:12:54;12.17;;;9.10;;
7845;SDS011;3968;51.424;6.788;2024-01-16T03:15:20;12.43;;;8.33;;
7845;SDS011;3968;51.424;6.788;2024-01-16T03:17:46;8.47;;;7.67;;
7845;SDS011;3968;51.424;6.788;2024-01-16T03:20:13;9.97;;;8.23;;
7845;SDS011;3968;51.424;6.788;2024-01-16T03:22:38;11.13;;;9.00;;
7845;SDS011;3968;51.424;6.788;2024-01-16T03:25:04;12.40;;;8.53;;
7845;SDS011;3968;51.424;6.788;2024-01-16T03:27:30;10.30;;;8.60;;
7845;SDS011;3968;51.424;6.788;2024-01-16T03:29:55;13.87;;;9.30;;
7845;SDS011;3968;51.424;6.788;2024-01-16T03:32:21;14.27;;;9.43;;
7845;SDS011;3968;51.424;6.788;2024-01-16T03:34:47;11.53;;;8.87;;
7845;SDS011;3968;51.424;6.788;2024-01-16T03:37:12;11.73;;;9.50;;
7845;SDS011;3968;51.424;6.788;2024-01-16T03:39:38;11.87;;;10.13;;
7845;SDS011;3968;51.424;6.788;2024-01-16T03:42:03;9.97;;;8.97;;
7845;SDS011;3968;51.424;6.788;2024-01-16T03:44:29;13.30;;;9.63;;
7845;SDS011;3968;51.424;6.788;2024-01-16T03:46:55;12.30;;;9.33;;
7845;SDS011;3968;51.424;6.788;2024-01-16T03:49:20;13.83;;;9.43;;
7845;SDS011;3968;51.424;6.788;2024-01-16T03:51:46;16.13;;;10.03;;
7845;SDS011;3968;51.424;6.788;2024-01-16T03:54:12;11.73;;;9.70;;
7845;SDS011;3968;51.424;6.788;2024-01-16T03:56:38;17.03;;;10.43;;
7845;SDS011;3968;51.424;6.788;2024-01-16T03:59:05;12.93;;;10.37;;
7845;SDS011;3968;51.424;6.788;2024-01-16T04:01:31;11.20;;;9.87;;
7845;SDS011;3968;51.424;6.788;2024-01-16T04:04:02;12.27;;;9.77;;
7845;SDS011;3968;51.424;6.788;2024-01-16T04:06:28;12.07;;;10.67;;
7845;SDS011;3968;51.424;6.788;2024-01-16T04:08:54;13.80;;;9.70;;
7845;SDS011;3968;51.424;6.788;2024-01-16T04:11:20;14.40;;;9.47;;
7845;SDS011;3968;51.424;6.788;2024-01-16T04:13:46;11.03;;;8.57;;
7845;SDS011;3968;51.424;6.788;2024-01-16T04:16:11;13.40;;;9.17;;
7845;SDS011;3968;51.424;6.788;2024-01-16T04:18:39;11.10;;;8.40;;
7845;SDS011;3968;51.424;6.788;2024-01-16T04:21:08;12.83;;;9.27;;
7845;SDS011;3968;51.424;6.788;2024-01-16T04:23:34;9.90;;;8.50;;
7845;SDS011;3968;51.424;6.788;2024-01-16T04:25:59;15.97;;;8.83;;
7845;SDS011;3968;51.424;6.788;2024-01-16T04:28:25;10.87;;;7.87;;
7845;SDS011;3968;51.424;6.788;2024-01-16T04:30:51;11.03;;;7.77;;
7845;SDS011;3968;51.424;6.788;2024-01-16T04:33:17;9.97;;;6.83;;
7845;SDS011;3968;51.424;6.788;2024-01-16T04:35:42;9.30;;;7.13;;
7845;SDS011;3968;51.424;6.788;2024-01-16T04:38:09;9.97;;;6.17;;
7845;SDS011;3968;51.424;6.788;2024-01-16T04:40:34;7.90;;;6.60;;
7845;SDS011;3968;51.424;6.788;2024-01-16T04:43:00;8.67;;;5.63;;
7845;SDS011;3968;51.424;6.788;2024-01-16T04:45:26;7.83;;;5.77;;
7845;SDS011;3968;51.424;6.788;2024-01-16T04:47:51;8.80;;;5.90;;
7845;SDS011;3968;51.424;6.788;2024-01-16T04:50:17;7.17;;;5.83;;
7845;SDS011;3968;51.424;6.788;2024-01-16T04:52:43;8.00;;;5.23;;
7845;SDS011;3968;51.424;6.788;2024-01-16T04:55:09;8.23;;;4.93;;
7845;SDS011;3968;51.424;6.788;2024-01-16T04:57:34;10.10;;;5.50;;
7845;SDS011;3968;51.424;6.788;2024-01-16T05:00:00;6.23;;;4.60;;
7845;SDS011;3968;51.424;6.788;2024-01-16T05:02:26;7.37;;;4.43;;
7845;SDS011;3968;51.424;6.788;2024-01-16T05:04:51;7.97;;;4.87;;
7845;SDS011;3968;51.424;6.788;2024-01-16T05:07:19;6.50;;;3.90;;
7845;SDS011;3968;51.424;6.788;2024-01-16T05:09:48;5.57;;;4.07;;
7845;SDS011;3968;51.424;6.788;2024-01-16T05:12:14;5.63;;;3.87;;
7845;SDS011;3968;51.424;6.788;2024-01-16T05:14:40;6.60;;;3.80;;
7845;SDS011;3968;51.424;6.788;2024-01-16T05:17:05;4.53;;;3.57;;
7845;SDS011;3968;51.424;6.788;2024-01-16T05:19:31;6.77;;;4.30;;
7845;SDS011;3968;51.424;6.788;2024-01-16T05:21:57;6.67;;;4.40;;
7845;SDS011;3968;51.424;6.788;2024-01-16T05:24:22;6.53;;;4.60;;
7845;SDS011;3968;51.424;6.788;2024-01-16T05:26:48;5.90;;;4.17;;
7845;SDS011;3968;51.424;6.788;2024-01-16T05:29:14;7.50;;;4.70;;
7845;SDS011;3968;51.424;6.788;2024-01-16T05:31:43;8.27;;;5.27;;
7845;SDS011;3968;51.424;6.788;2024-01-16T05:34:09;6.47;;;5.70;;
7845;SDS011;3968;51.424;6.788;2024-01-16T05:36:35;7.33;;;6.60;;
7845;SDS011;3968;51.424;6.788;2024-01-16T05:39:00;9.57;;;7.40;;
7845;SDS011;3968;51.424;6.788;2024-01-16T05:41:27;8.87;;;6.90;;
7845;SDS011;3968;51.424;6.788;2024-01-16T05:43:52;10.57;;;6.87;;
7845;SDS011;3968;51.424;6.788;2024-01-16T05:46:18;10.13;;;8.20;;
7845;SDS011;3968;51.424;6.788;2024-01-16T05:48:44;12.70;;;8.50;;
7845;SDS011;3968;51.424;6.788;2024-01-16T05:51:09;17.40;;;9.30;;
7845;SDS011;3968;51.424;6.788;2024-01-16T05:53:35;15.10;;;10.40;;
7845;SDS011;3968;51.424;6.788;2024-01-16T05:56:00;13.87;;;10.77;;
7845;SDS011;3968;51.424;6.788;2024-01-16T05:58:26;14.50;;;10.90;;
7845;SDS011;3968;51.424;6.788;2024-01-16T06:00:52;16.90;;;10.77;;
7845;SDS011;3968;51.424;6.788;2024-01-16T06:03:17;17.93;;;10.23;;
7845;SDS011;3968;51.424;6.788;2024-01-16T06:05:43;13.23;;;9.57;;
7845;SDS011;3968;51.424;6.788;2024-01-16T06:08:09;15.10;;;9.53;;
7845;SDS011;3968;51.424;6.788;2024-01-16T06:10:34;13.73;;;9.70;;
7845;SDS011;3968;51.424;6.788;2024-01-16T06:13:00;11.90;;;9.23;;
7845;SDS011;3968;51.424;6.788;2024-01-16T06:15:26;13.73;;;10.30;;
7845;SDS011;3968;51.424;6.788;2024-01-16T06:17:51;14.33;;;9.07;;
7845;SDS011;3968;51.424;6.788;2024-01-16T06:20:17;17.53;;;10.33;;
7845;SDS011;3968;51.424;6.788;2024-01-16T06:22:42;15.20;;;9.63;;
7845;SDS011;3968;51.424;6.788;2024-01-16T06:25:08;10.53;;;8.50;;
7845;SDS011;3968;51.424;6.788;2024-01-16T06:27:33;14.13;;;8.53;;
7845;SDS011;3968;51.424;6.788;2024-01-16T06:29:59;13.33;;;8.90;;
7845;SDS011;3968;51.424;6.788;2024-01-16T06:32:25;14.00;;;8.70;;
7845;SDS011;3968;51.424;6.788;2024-01-16T06:34:50;16.73;;;8.40;;
7845;SDS011;3968;51.424;6.788;2024-01-16T06:37:16;12.00;;;8.77;;
7845;SDS011;3968;51.424;6.788;2024-01-16T06:39:42;14.67;;;8.37;;
7845;SDS011;3968;51.424;6.788;2024-01-16T06:42:07;13.23;;;8.87;;
7845;SDS011;3968;51.424;6.788;2024-01-16T06:44:34;10.30;;;8.03;;
7845;SDS011;3968;51.424;6.788;2024-01-16T06:46:59;15.10;;;8.77;;
7845;SDS011;3968;51.424;6.788;2024-01-16T06:49:25;16.63;;;9.23;;
7845;SDS011;3968;51.424;6.788;2024-01-16T06:51:52;18.80;;;8.67;;
7845;SDS011;3968;51.424;6.788;2024-01-16T06:54:17;12.57;;;7.23;;
7845;SDS011;3968;51.424;6.788;2024-01-16T06:56:45;17.17;;;8.53;;
7845;SDS011;3968;51.424;6.788;2024-01-16T06:59:11;11.47;;;7.50;;
7845;SDS011;3968;51.424;6.788;2024-01-16T07:01:37;13.90;;;7.53;;
7845;SDS011;3968;51.424;6.788;2024-01-16T07:04:03;13.40;;;7.40;;
7845;SDS011;3968;51.424;6.788;2024-01-16T07:06:28;13.30;;;7.33;;
7845;SDS011;3968;51.424;6.788;2024-01-16T07:08:54;15.37;;;7.50;;
7845;SDS011;3968;51.424;6.788;2024-01-16T07:11:19;12.97;;;6.57;;
7845;SDS011;3968;51.424;6.788;2024-01-16T07:13:46;9.30;;;5.93;;
7845;SDS011;3968;51.424;6.788;2024-01-16T07:16:11;14.00;;;6.20;;
7845;SDS011;3968;51.424;6.788;2024-01-16T07:18:38;12.07;;;5.90;;
7845;SDS011;3968;51.424;6.788;2024-01-16T07:21:04;11.67;;;5.83;;
7845;SDS011;3968;51.424;6.788;2024-01-16T07:23:40;12.60;;;5.83;;
7845;SDS011;3968;51.424;6.788;2024-01-16T07:26:06;12.30;;;5.60;;
7845;SDS011;3968;51.424;6.788;2024-01-16T07:28:32;10.43;;;5.73;;
7845;SDS011;3968;51.424;6.788;2024-01-16T07:30:58;8.30;;;5.27;;
7845;SDS011;3968;51.424;6.788;2024-01-16T07:33:23;13.40;;;4.90;;
7845;SDS011;3968;51.424;6.788;2024-01-16T07:35:49;11.17;;;5.00;;
7845;SDS011;3968;51.424;6.788;2024-01-16T07:38:14;13.43;;;5.73;;
7845;SDS011;3968;51.424;6.788;2024-01-16T07:40:40;13.73;;;5.53;;
7845;SDS011;3968;51.424;6.788;2024-01-16T07:43:06;9.87;;;4.80;;
7845;SDS011;3968;51.424;6.788;2024-01-16T07:45:31;12.80;;;5.60;;
7845;SDS011;3968;51.424;6.788;2024-01-16T07:47:57;9.57;;;4.90;;
7845;SDS011;3968;51.424;6.788;2024-01-16T07:50:23;9.73;;;4.80;;
7845;SDS011;3968;51.424;6.788;2024-01-16T07:52:49;9.53;;;4.67;;
7845;SDS011;3968;51.424;6.788;2024-01-16T07:55:14;13.30;;;5.00;;
7845;SDS011;3968;51.424;6.788;2024-01-16T07:57:40;7.87;;;4.07;;
7845;SDS011;3968;51.424;6.788;2024-01-16T08:00:06;10.10;;;4.63;;
7845;SDS011;3968;51.424;6.788;2024-01-16T08:02:36;6.60;;;3.83;;
7845;SDS011;3968;51.424;6.788;2024-01-16T08:05:02;14.80;;;4.53;;
7845;SDS011;3968;51.424;6.788;2024-01-16T08:07:28;15.47;;;4.73;;
7845;SDS011;3968;51.424;6.788;2024-01-16T08:09:54;7.93;;;3.57;;
7845;SDS011;3968;51.424;6.788;2024-01-16T08:12:19;13.83;;;4.50;;
7845;SDS011;3968;51.424;6.788;2024-01-16T08:14:45;9.97;;;4.30;;
7845;SDS011;3968;51.424;6.788;2024-01-16T08:17:11;10.20;;;4.17;;
7845;SDS011;3968;51.424;6.788;2024-01-16T08:19:36;8.77;;;3.87;;
7845;SDS011;3968;51.424;6.788;2024-01-16T08:22:02;7.57;;;3.93;;
7845;SDS011;3968;51.424;6.788;2024-01-16T08:24:28;10.27;;;3.93;;
7845;SDS011;3968;51.424;6.788;2024-01-16T08:26:53;8.43;;;3.73;;
7845;SDS011;3968;51.424;6.788;2024-01-16T08:29:22;9.00;;;3.87;;
7845;SDS011;3968;51.424;6.788;2024-01-16T08:31:48;8.53;;;3.70;;
7845;SDS011;3968;51.424;6.788;2024-01-16T08:34:13;9.00;;;3.83;;
7845;SDS011;3968;51.424;6.788;2024-01-16T08:36:39;6.27;;;3.37;;
7845;SDS011;3968;51.424;6.788;2024-01-16T08:39:05;9.10;;;3.93;;
7845;SDS011;3968;51.424;6.788;2024-01-16T08:41:30;10.97;;;3.90;;
7845;SDS011;3968;51.424;6.788;2024-01-16T08:43:56;7.77;;;3.10;;
7845;SDS011;3968;51.424;6.788;2024-01-16T08:46:22;8.73;;;3.90;;
7845;SDS011;3968;51.424;6.788;2024-01-16T08:48:48;8.07;;;4.03;;
7845;SDS011;3968;51.424;6.788;2024-01-16T08:51:13;8.83;;;4.17;;
7845;SDS011;3968;51.424;6.788;2024-01-16T08:53:39;7.20;;;3.70;;
7845;SDS011;3968;51.424;6.788;2024-01-16T08:56:06;10.47;;;4.20;;
7845;SDS011;3968;51.424;6.788;2024-01-16T08:58:33;9.37;;;4.40;;
7845;SDS011;3968;51.424;6.788;2024-01-16T09:01:06;10.37;;;4.03;;
7845;SDS011;3968;51.424;6.788;2024-01-16T09:03:32;8.57;;;3.67;;
7845;SDS011;3968;51.424;6.788;2024-01-16T09:05:58;10.63;;;4.13;;
7845;SDS011;3968;51.424;6.788;2024-01-16T09:08:25;8.40;;;3.93;;
7845;SDS011;3968;51.424;6.788;2024-01-16T09:10:51;6.10;;;4.10;;
7845;SDS011;3968;51.424;6.788;2024-01-16T09:13:17;9.87;;;3.93;;
7845;SDS011;3968;51.424;6.788;2024-01-16T09:15:43;8.27;;;3.57;;
7845;SDS011;3968;51.424;6.788;2024-01-16T09:18:09;10.60;;;3.80;;
7845;SDS011;3968;51.424;6.788;2024-01-16T09:20:34;9.30;;;4.20;;
7845;SDS011;3968;51.424;6.788;2024-01-16T09:23:00;8.60;;;4.13;;
7845;SDS011;3968;51.424;6.788;2024-01-16T09:25:25;10.30;;;4.27;;
7845;SDS011;3968;51.424;6.788;2024-01-16T09:27:52;6.37;;;4.00;;
7845;SDS011;3968;51.424;6.788;2024-01-16T09:30:18;6.93;;;3.60;;
7845;SDS011;3968;51.424;6.788;2024-01-16T09:32:44;12.70;;;4.00;;
7845;SDS011;3968;51.424;6.788;2024-01-16T09:35:10;9.57;;;4.20;;
7845;SDS011;3968;51.424;6.788;2024-01-16T09:37:36;9.37;;;4.63;;
7845;SDS011;3968;51.424;6.788;2024-01-16T09:40:02;10.70;;;4.73;;
7845;SDS011;3968;51.424;6.788;2024-01-16T09:42:30;11.60;;;4.20;;
7845;SDS011;3968;51.424;6.788;2024-01-16T09:44:56;9.23;;;4.40;;
7845;SDS011;3968;51.424;6.788;2024-01-16T09:47:22;5.80;;;4.10;;
7845;SDS011;3968;51.424;6.788;2024-01-16T09:49:49;6.50;;;3.87;;
7845;SDS011;3968;51.424;6.788;2024-01-16T09:52:15;8.33;;;4.23;;
7845;SDS011;3968;51.424;6.788;2024-01-16T09:54:40;8.30;;;3.70;;
7845;SDS011;3968;51.424;6.788;2024-01-16T09:57:06;7.53;;;4.63;;
7845;SDS011;3968;51.424;6.788;2024-01-16T09:59:32;12.73;;;3.93;;
7845;SDS011;3968;51.424;6.788;2024-01-16T10:02:01;8.60;;;4.20;;
7845;SDS011;3968;51.424;6.788;2024-01-16T10:04:31;10.67;;;4.20;;
7845;SDS011;3968;51.424;6.788;2024-01-16T10:06:59;11.07;;;4.53;;
7845;SDS011;3968;51.424;6.788;2024-01-16T10:09:27;10.10;;;4.00;;
7845;SDS011;3968;51.424;6.788;2024-01-16T10:11:54;7.73;;;4.03;;
7845;SDS011;3968;51.424;6.788;2024-01-16T10:14:20;14.17;;;4.90;;
7845;SDS011;3968;51.424;6.788;2024-01-16T10:17:02;6.57;;;4.10;;
7845;SDS011;3968;51.424;6.788;2024-01-16T10:19:34;7.60;;;3.87;;
7845;SDS011;3968;51.424;6.788;2024-01-16T10:22:12;9.37;;;4.50;;
7845;SDS011;3968;51.424;6.788;2024-01-16T10:24:37;12.20;;;4.60;;
7845;SDS011;3968;51.424;6.788;2024-01-16T10:27:03;13.73;;;5.17;;
7845;SDS011;3968;51.424;6.788;2024-01-16T10:29:29;8.30;;;4.17;;
7845;SDS011;3968;51.424;6.788;2024-01-16T10:31:56;8.20;;;4.33;;
7845;SDS011;3968;51.424;6.788;2024-01-16T10:34:22;9.27;;;4.27;;
7845;SDS011;3968;51.424;6.788;2024-01-16T10:36:49;9.43;;;4.30;;
7845;SDS011;3968;51.424;6.788;2024-01-16T10:39:17;9.20;;;4.30;;
7845;SDS011;3968;51.424;6.788;2024-01-16T10:41:53;10.40;;;4.33;;
7845;SDS011;3968;51.424;6.788;2024-01-16T10:44:20;9.17;;;4.20;;
7845;SDS011;3968;51.424;6.788;2024-01-16T10:46:46;10.00;;;4.40;;
7845;SDS011;3968;51.424;6.788;2024-01-16T10:49:11;8.43;;;4.40;;
7845;SDS011;3968;51.424;6.788;2024-01-16T10:51:37;7.00;;;4.00;;
7845;SDS011;3968;51.424;6.788;2024-01-16T10:54:07;24.53;;;13.67;;
7845;SDS011;3968;51.424;6.788;2024-01-16T10:56:39;9.67;;;4.53;;
7845;SDS011;3968;51.424;6.788;2024-01-16T10:59:16;11.27;;;4.03;;
7845;SDS011;3968;51.424;6.788;2024-01-16T11:01:48;11.57;;;4.63;;
7845;SDS011;3968;51.424;6.788;2024-01-16T11:04:19;12.20;;;5.27;;
7845;SDS011;3968;51.424;6.788;2024-01-16T11:06:46;9.77;;;4.73;;
7845;SDS011;3968;51.424;6.788;2024-01-16T11:09:12;9.20;;;4.40;;
7845;SDS011;3968;51.424;6.788;2024-01-16T11:11:43;10.97;;;4.63;;
7845;SDS011;3968;51.424;6.788;2024-01-16T11:14:10;8.67;;;4.30;;
7845;SDS011;3968;51.424;6.788;2024-01-16T11:16:36;7.30;;;4.07;;
7845;SDS011;3968;51.424;6.788;2024-01-16T11:19:04;7.93;;;4.00;;
7845;SDS011;3968;51.424;6.788;2024-01-16T11:21:32;9.13;;;4.40;;
7845;SDS011;3968;51.424;6.788;2024-01-16T11:23:58;11.60;;;4.50;;
7845;SDS011;3968;51.424;6.788;2024-01-16T11:28:53;6.43;;;4.07;;
7845;SDS011;3968;51.424;6.788;2024-01-16T11:31:34;11.77;;;4.30;;
7845;SDS011;3968;51.424;6.788;2024-01-16T11:34:00;10.07;;;4.10;;
7845;SDS011;3968;51.424;6.788;2024-01-16T11:36:43;10.67;;;5.13;;
7845;SDS011;3968;51.424;6.788;2024-01-16T11:39:19;12.53;;;5.57;;
7845;SDS011;3968;51.424;6.788;2024-01-16T11:41:58;13.77;;;4.93;;
7845;SDS011;3968;51.424;6.788;2024-01-16T11:44:57;7.90;;;4.70;;
7845;SDS011;3968;51.424;6.788;2024-01-16T11:47:22;12.27;;;4.77;;
7845;SDS011;3968;51.424;6.788;2024-01-16T11:49:50;9.43;;;4.53;;
7845;SDS011;3968;51.424;6.788;2024-01-16T11:52:39;6.63;;;4.47;;
7845;SDS011;3968;51.424;6.788;2024-01-16T11:57:54;6.60;;;4.00;;
7845;SDS011;3968;51.424;6.788;2024-01-16T12:00:44;8.60;;;3.90;;
7845;SDS011;3968;51.424;6.788;2024-01-16T12:03:11;9.40;;;4.70;;
7845;SDS011;3968;51.424;6.788;2024-01-16T12:05:39;13.03;;;5.07;;
7845;SDS011;3968;51.424;6.788;2024-01-16T12:08:04;9.93;;;4.43;;
7845;SDS011;3968;51.424;6.788;2024-01-16T12:10:31;8.87;;;4.77;;
7845;SDS011;3968;51.424;6.788;2024-01-16T12:12:59;8.83;;;4.87;;
7845;SDS011;3968;51.424;6.788;2024-01-16T12:15:25;12.00;;;4.97;;
7845;SDS011;3968;51.424;6.788;2024-01-16T12:18:00;8.70;;;4.60;;
7845;SDS011;3968;51.424;6.788;2024-01-16T12:20:30;8.43;;;4.67;;
7845;SDS011;3968;51.424;6.788;2024-01-16T12:23:03;11.37;;;4.70;;
7845;SDS011;3968;51.424;6.788;2024-01-16T12:25:30;9.37;;;4.60;;
7845;SDS011;3968;51.424;6.788;2024-01-16T12:28:15;11.77;;;4.73;;
7845;SDS011;3968;51.424;6.788;2024-01-16T12:30:48;9.43;;;4.57;;
7845;SDS011;3968;51.424;6.788;2024-01-16T12:33:15;11.97;;;5.33;;
7845;SDS011;3968;51.424;6.788;2024-01-16T12:35:42;11.63;;;5.33;;
7845;SDS011;3968;51.424;6.788;2024-01-16T12:38:11;12.13;;;4.83;;
7845;SDS011;3968;51.424;6.788;2024-01-16T12:40:41;6.47;;;4.70;;
7845;SDS011;3968;51.424;6.788;2024-01-16T12:43:11;8.73;;;5.13;;
7845;SDS011;3968;51.424;6.788;2024-01-16T12:45:36;9.67;;;4.83;;
7845;SDS011;3968;51.424;6.788;2024-01-16T12:48:03;9.57;;;4.93;;
7845;SDS011;3968;51.424;6.788;2024-01-16T12:50:29;10.93;;;5.80;;
7845;SDS011;3968;51.424;6.788;2024-01-16T12:55:28;17.63;;;10.37;;
7845;SDS011;3968;51.424;6.788;2024-01-16T13:00:38;9.13;;;5.43;;
7845;SDS011;3968;51.424;6.788;2024-01-16T13:03:06;16.17;;;5.70;;
7845;SDS011;3968;51.424;6.788;2024-01-16T13:05:32;11.77;;;5.87;;
7845;SDS011;3968;51.424;6.788;2024-01-16T13:08:01;12.10;;;5.83;;
7845;SDS011;3968;51.424;6.788;2024-01-16T13:10:31;12.40;;;6.10;;
7845;SDS011;3968;51.424;6.788;2024-01-16T13:13:18;11.47;;;5.23;;
7845;SDS011;3968;51.424;6.788;2024-01-16T13:15:43;7.13;;;5.00;;
7845;SDS011;3968;51.424;6.788;2024-01-16T13:18:22;10.50;;;5.43;;
7845;SDS011;3968;51.424;6.788;2024-01-16T13:20:50;11.77;;;6.10;;
7845;SDS011;3968;51.424;6.788;2024-01-16T13:23:17;10.47;;;5.17;;
7845;SDS011;3968;51.424;6.788;2024-01-16T13:25:44;16.43;;;5.90;;
7845;SDS011;3968;51.424;6.788;2024-01-16T13:28:13;12.53;;;5.80;;
7845;SDS011;3968;51.424;6.788;2024-01-16T13:30:40;12.90;;;5.80;;
7845;SDS011;3968;51.424;6.788;2024-01-16T13:33:06;13.17;;;6.10;;
7845;SDS011;3968;51.424;6.788;2024-01-16T13:35:34;8.30;;;5.30;;
7845;SDS011;3968;51.424;6.788;2024-01-16T13:38:01;8.43;;;5.40;;
7845;SDS011;3968;51.424;6.788;2024-01-16T13:40:29;8.13;;;5.00;;
7845;SDS011;3968;51.424;6.788;2024-01-16T13:42:54;12.17;;;5.90;;
7845;SDS011;3968;51.424;6.788;2024-01-16T13:45:20;14.37;;;5.70;;
7845;SDS011;3968;51.424;6.788;2024-01-16T13:47:46;12.07;;;5.90;;
7845;SDS011;3968;51.424;6.788;2024-01-16T13:50:11;11.47;;;5.27;;
7845;SDS011;3968;51.424;6.788;2024-01-16T13:52:37;10.77;;;5.33;;
7845;SDS011;3968;51.424;6.788;2024-01-16T13:55:05;12.87;;;5.77;;
7845;SDS011;3968;51.424;6.788;2024-01-16T13:57:31;11.33;;;4.70;;
7845;SDS011;3968;51.424;6.788;2024-01-16T13:59:57;11.20;;;5.50;;
7845;SDS011;3968;51.424;6.788;2024-01-16T14:02:23;9.40;;;4.80;;
7845;SDS011;3968;51.424;6.788;2024-01-16T14:04:49;11.87;;;5.47;;
7845;SDS011;3968;51.424;6.788;2024-01-16T14:07:16;12.37;;;4.43;;
7845;SDS011;3968;51.424;6.788;2024-01-16T14:09:41;9.00;;;4.97;;
7845;SDS011;3968;51.424;6.788;2024-01-16T14:12:07;9.17;;;4.57;;
7845;SDS011;3968;51.424;6.788;2024-01-16T14:14:33;9.27;;;5.00;;
7845;SDS011;3968;51.424;6.788;2024-01-16T14:16:59;10.13;;;4.47;;
7845;SDS011;3968;51.424;6.788;2024-01-16T14:19:26;11.40;;;5.20;;
7845;SDS011;3968;51.424;6.788;2024-01-16T14:21:53;10.00;;;4.60;;
7845;SDS011;3968;51.424;6.788;2024-01-16T14:24:18;10.67;;;4.70;;
7845;SDS011;3968;51.424;6.788;2024-01-16T14:26:44;8.03;;;5.27;;
7845;SDS011;3968;51.424;6.788;2024-01-16T14:29:10;8.60;;;4.73;;
7845;SDS011;3968;51.424;6.788;2024-01-16T14:31:36;11.40;;;5.13;;
7845;SDS011;3968;51.424;6.788;2024-01-16T14:34:02;10.03;;;4.57;;
7845;SDS011;3968;51.424;6.788;2024-01-16T14:36:28;10.13;;;4.90;;
7845;SDS011;3968;51.424;6.788;2024-01-16T14:38:54;12.43;;;5.10;;
7845;SDS011;3968;51.424;6.788;2024-01-16T14:41:20;9.73;;;4.90;;
7845;SDS011;3968;51.424;6.788;2024-01-16T14:43:47;8.10;;;4.27;;
7845;SDS011;3968;51.424;6.788;2024-01-16T14:46:13;7.60;;;4.60;;
7845;SDS011;3968;51.424;6.788;2024-01-16T14:48:43;10.37;;;4.90;;
7845;SDS011;3968;51.424;6.788;2024-01-16T14:51:09;9.43;;;4.93;;
7845;SDS011;3968;51.424;6.788;2024-01-16T14:53:35;7.50;;;4.60;;
7845;SDS011;3968;51.424;6.788;2024-01-16T14:56:01;11.03;;;4.80;;
7845;SDS011;3968;51.424;6.788;2024-01-16T14:58:27;12.60;;;5.40;;
7845;SDS011;3968;51.424;6.788;2024-01-16T15:00:53;10.33;;;5.03;;
7845;SDS011;3968;51.424;6.788;2024-01-16T15:03:20;8.97;;;4.83;;
7845;SDS011;3968;51.424;6.788;2024-01-16T15:05:47;9.40;;;4.97;;
7845;SDS011;3968;51.424;6.788;2024-01-16T15:08:13;7.43;;;4.30;;
7845;SDS011;3968;51.424;6.788;2024-01-16T15:10:39;10.83;;;4.80;;
7845;SDS011;3968;51.424;6.788;2024-01-16T15:13:05;9.87;;;4.63;;
7845;SDS011;3968;51.424;6.788;2024-01-16T15:15:31;8.27;;;5.20;;